Terminal Aerodrome Forecast
Issued by NWS Albany, NY

Home | Current Version | Previous Version | Text Only | Print | Product List | Glossary On
Versions: 1 2 3 4 5 6 7 8 9 10 11 12 13 14 15 16 17 18 19
494
FTUS41 KALY 280538
TAFALB
TAF
KALB 280538Z 2806/2906 00000KT P6SM SCT250
     FM281200 17004KT P6SM BKN250
     FM281600 20006KT P6SM SCT100 BKN200
     FM282000 22007KT P6SM VCSH SCT060 BKN200 PROB30 2821/2824 5SM
      -TSRA BR BKN050CB
     FM290200 VRB04KT P6SM FEW050 BKN200=

USA.gov is the U.S. government's official web portal to all federal, state and local government web resources and services.